createdAt,value
2022-12-09T00:00:18.437Z,98908.78
2022-12-09T00:02:46.267Z,98896.69
2022-12-09T00:05:14.154Z,98911.34
2022-12-09T00:07:43.393Z,98905.31
2022-12-09T00:10:11.531Z,98909.63
2022-12-09T00:12:39.446Z,98905.28
2022-12-09T00:15:08.850Z,98889.72
2022-12-09T00:17:36.806Z,98894.03
2022-12-09T00:20:06.014Z,98897.50
2022-12-09T00:22:34.048Z,98895.78
2022-12-09T00:25:03.255Z,98899.19
2022-12-09T00:27:31.139Z,98880.19
2022-12-09T00:29:59.860Z,98899.19
2022-12-09T00:32:27.722Z,98894.88
2022-12-09T00:34:55.512Z,98885.41
2022-12-09T00:37:23.158Z,98906.13
2022-12-09T00:39:50.830Z,98895.72
2022-12-09T00:42:19.876Z,98901.81
2022-12-09T00:44:47.776Z,98901.81
2022-12-09T00:47:15.550Z,98900.94
2022-12-09T00:49:43.349Z,98898.34
2022-12-09T00:52:10.976Z,98900.06
2022-12-09T00:54:39.040Z,98907.00
2022-12-09T00:57:07.003Z,98898.38
2022-12-09T00:59:36.179Z,98895.78
2022-12-09T01:02:03.934Z,98890.63
2022-12-09T01:04:33.832Z,98888.88
2022-12-09T01:07:01.606Z,98887.13
2022-12-09T01:09:29.836Z,98880.25
2022-12-09T01:11:57.718Z,98895.84
2022-12-09T01:14:25.795Z,98879.47
2022-12-09T01:16:54.925Z,98901.09
2022-12-09T01:19:23.035Z,98889.84
2022-12-09T01:21:54.909Z,98886.41
2022-12-09T01:24:22.871Z,98895.06
2022-12-09T01:26:50.734Z,98902.00
2022-12-09T01:29:18.451Z,98900.25
2022-12-09T01:31:46.137Z,98901.09
2022-12-09T01:34:15.221Z,98899.38
2022-12-09T01:36:42.882Z,98911.50
2022-12-09T01:39:10.964Z,98904.59
2022-12-09T01:41:38.757Z,98903.75
2022-12-09T01:46:41.318Z,98904.59
2022-12-09T01:49:10.361Z,98902.88
2022-12-09T01:51:39.675Z,98897.69
2022-12-09T01:54:07.461Z,98873.50
2022-12-09T01:56:36.007Z,98897.69
2022-12-09T01:59:05.244Z,98898.53
2022-12-09T02:01:33.078Z,98904.56
2022-12-09T02:04:01.155Z,98893.34
2022-12-09T02:06:29.383Z,98899.38
2022-12-09T02:08:58.593Z,98896.78
2022-12-09T02:11:30.647Z,98899.41
2022-12-09T02:14:02.453Z,98831.13
2022-12-09T02:16:30.644Z,98847.53
2022-12-09T02:19:01.164Z,98890.69
2022-12-09T02:21:31.158Z,98882.03
2022-12-09T02:24:05.454Z,98876.00
2022-12-09T02:26:36.968Z,98882.03
2022-12-09T02:29:19.764Z,98863.91
2022-12-09T02:32:08.250Z,98876.81
2022-12-09T02:34:38.793Z,98880.31
2022-12-09T02:37:09.738Z,98876.88
2022-12-09T02:39:42.804Z,98886.41
2022-12-09T02:42:10.877Z,98868.22
2022-12-09T02:44:39.013Z,98874.31
2022-12-09T02:47:07.284Z,98872.56
2022-12-09T02:49:35.108Z,98852.72
2022-12-09T02:52:04.252Z,98871.72
2022-12-09T02:54:32.358Z,98870.03
2022-12-09T02:57:02.837Z,98832.91
2022-12-09T02:59:30.879Z,98862.25
2022-12-09T03:02:14.421Z,98857.03
2022-12-09T03:04:43.811Z,98859.63
2022-12-09T03:07:16.975Z,98856.19
2022-12-09T03:09:46.075Z,98850.13
2022-12-09T03:12:15.392Z,98861.34
2022-12-09T03:14:44.690Z,98848.38
2022-12-09T03:17:14.480Z,98868.28
2022-12-09T03:19:43.657Z,98857.91
2022-12-09T03:22:14.800Z,98851.88
2022-12-09T03:24:45.672Z,98843.19
2022-12-09T03:27:15.750Z,98851.84
2022-12-09T03:29:43.941Z,98842.31
2022-12-09T03:32:12.022Z,98847.50
2022-12-09T03:34:40.319Z,98824.22
2022-12-09T03:37:08.260Z,98845.78
2022-12-09T03:39:38.739Z,98817.31
2022-12-09T03:42:08.653Z,98840.63
2022-12-09T03:44:38.180Z,98842.38
2022-12-09T03:47:06.868Z,98837.16
2022-12-09T03:49:35.830Z,98838.94
2022-12-09T03:52:05.323Z,98832.00
2022-12-09T03:54:34.746Z,98809.56
2022-12-09T03:57:04.150Z,98831.16
2022-12-09T03:59:34.782Z,98835.50
2022-12-09T04:02:03.670Z,98832.06
2022-12-09T04:04:32.123Z,98824.28
2022-12-09T04:07:00.068Z,98832.06
2022-12-09T04:09:28.488Z,98792.31
2022-12-09T04:11:56.325Z,98828.63
2022-12-09T04:14:25.479Z,98826.88
2022-12-09T04:16:53.331Z,98834.69
2022-12-09T04:19:21.133Z,98832.97
2022-12-09T04:21:48.877Z,98800.97
2022-12-09T04:24:17.320Z,98832.91
2022-12-09T04:26:45.200Z,98803.53
2022-12-09T04:29:15.348Z,98823.38
2022-12-09T04:31:44.745Z,98820.78
2022-12-09T04:34:13.951Z,98819.03
2022-12-09T04:36:41.737Z,98816.41
2022-12-09T04:39:10.039Z,98822.47
2022-12-09T04:41:38.181Z,98822.44
2022-12-09T04:44:06.517Z,98808.66
2022-12-09T04:46:34.416Z,98809.50
2022-12-09T04:49:04.160Z,98822.50
2022-12-09T04:51:39.223Z,98814.69
2022-12-09T04:54:07.700Z,98800.06
2022-12-09T04:56:35.723Z,98814.69
2022-12-09T04:59:04.804Z,98816.41
2022-12-09T05:01:33.248Z,98815.53
2022-12-09T05:04:01.351Z,98816.41
2022-12-09T05:06:31.232Z,98762.00
2022-12-09T05:08:59.452Z,98812.06
2022-12-09T05:11:27.541Z,98816.38
2022-12-09T05:13:55.487Z,98767.13
2022-12-09T05:16:24.109Z,98812.03
2022-12-09T05:18:52.411Z,98811.16
2022-12-09T05:21:21.132Z,98812.03
2022-12-09T05:23:50.455Z,98810.28
2022-12-09T05:26:21.366Z,98812.88
2022-12-09T05:28:49.372Z,98812.84
2022-12-09T05:31:19.840Z,98813.72
2022-12-09T05:33:48.212Z,98813.72
2022-12-09T05:36:17.884Z,98802.53
2022-12-09T05:38:45.787Z,98808.50
2022-12-09T05:41:15.853Z,98811.97
2022-12-09T05:43:44.037Z,98810.22
2022-12-09T05:46:12.294Z,98812.81
2022-12-09T05:48:40.609Z,98801.56
2022-12-09T05:51:11.761Z,98812.84
2022-12-09T05:53:39.803Z,98798.13
2022-12-09T05:56:07.682Z,98799.88
2022-12-09T05:58:36.979Z,98804.19
2022-12-09T06:01:05.745Z,98791.22
2022-12-09T06:03:35.507Z,98791.22
2022-12-09T06:06:06.773Z,98795.56
2022-12-09T06:08:35.537Z,98799.03
2022-12-09T06:11:03.454Z,98782.66
2022-12-09T06:13:32.097Z,98793.88
2022-12-09T06:16:05.338Z,98793.88
2022-12-09T06:18:33.877Z,98786.97
2022-12-09T06:21:06.292Z,98779.19
2022-12-09T06:23:35.431Z,98785.25
2022-12-09T06:26:03.565Z,98789.59
2022-12-09T06:28:31.438Z,98788.75
2022-12-09T06:31:00.050Z,98779.25
2022-12-09T06:33:53.602Z,98782.72
2022-12-09T06:36:16.881Z,98781.88
2022-12-09T06:38:47.262Z,98786.19
2022-12-09T06:41:15.755Z,98779.25
2022-12-09T06:43:44.021Z,98780.97
2022-12-09T06:46:13.010Z,98777.53
2022-12-09T06:48:42.804Z,98781.88
2022-12-09T06:51:11.177Z,98778.41
2022-12-09T06:53:39.185Z,98756.84
2022-12-09T06:56:12.170Z,98775.88
2022-12-09T06:58:41.438Z,98775.91
2022-12-09T07:01:13.786Z,98787.13
2022-12-09T07:03:43.904Z,98773.31
2022-12-09T07:06:17.985Z,98785.44
2022-12-09T07:08:45.899Z,98786.31
2022-12-09T07:11:14.691Z,98789.75
2022-12-09T07:13:42.989Z,98783.69
2022-12-09T07:16:11.043Z,98794.09
2022-12-09T07:18:39.111Z,98800.13
2022-12-09T07:21:09.510Z,98795.78
2022-12-09T07:23:38.301Z,98801.81
2022-12-09T07:26:07.399Z,98805.28
2022-12-09T07:28:36.449Z,98814.78
2022-12-09T07:31:04.585Z,98786.25
2022-12-09T07:33:32.729Z,98812.19
2022-12-09T07:36:01.108Z,98810.47
2022-12-09T07:38:30.411Z,98819.13
2022-12-09T07:40:58.515Z,98815.66
2022-12-09T07:46:08.488Z,98811.34
2022-12-09T07:48:36.890Z,98813.94
2022-12-09T07:51:05.444Z,98812.22
2022-12-09T07:53:35.249Z,98811.34
2022-12-09T07:56:04.626Z,98824.31
2022-12-09T07:58:32.795Z,98826.91
2022-12-09T08:01:06.314Z,98826.00
2022-12-09T08:03:34.303Z,98591.13
2022-12-09T08:06:02.564Z,98795.75
2022-12-09T08:08:31.129Z,98838.94
2022-12-09T08:11:08.624Z,98837.19
2022-12-09T08:13:36.675Z,98832.00
2022-12-09T08:16:05.283Z,98835.44
2022-12-09T08:18:33.357Z,98838.88
2022-12-09T08:21:01.558Z,98836.25
2022-12-09T08:23:29.682Z,98840.59
2022-12-09T08:25:58.028Z,98845.75
2022-12-09T08:28:29.077Z,98842.28
2022-12-09T08:30:57.411Z,98836.22
2022-12-09T08:33:26.840Z,98827.59
2022-12-09T08:35:54.840Z,98780.97
2022-12-09T08:38:22.792Z,98831.91
2022-12-09T08:40:50.616Z,98806.84
2022-12-09T08:43:18.508Z,98812.84
2022-12-09T08:45:48.932Z,98832.72
2022-12-09T08:48:17.523Z,98831.81
2022-12-09T08:50:46.206Z,98824.03
2022-12-09T08:53:14.636Z,98835.28
2022-12-09T08:55:42.988Z,98836.13
2022-12-09T08:58:11.128Z,98826.59
2022-12-09T09:00:39.138Z,98820.53
2022-12-09T09:03:12.262Z,98826.56
2022-12-09T09:05:40.551Z,98825.75
2022-12-09T09:08:09.000Z,98817.09
2022-12-09T09:10:43.398Z,98831.78
2022-12-09T09:13:11.525Z,98824.84
2022-12-09T09:15:40.476Z,98826.56
2022-12-09T09:18:11.014Z,98817.91
2022-12-09T09:20:38.998Z,98828.25
2022-12-09T09:23:06.997Z,98832.53
2022-12-09T09:25:35.289Z,98834.25
2022-12-09T09:28:03.647Z,98829.09
2022-12-09T09:30:32.196Z,98835.13
2022-12-09T09:33:00.290Z,98829.06
2022-12-09T09:35:30.444Z,98842.88
2022-12-09T09:37:59.374Z,98848.06
2022-12-09T09:40:27.574Z,98848.91
2022-12-09T09:42:55.663Z,98846.31
2022-12-09T09:45:24.893Z,98829.88
2022-12-09T09:47:54.410Z,98847.16
2022-12-09T09:50:30.925Z,98838.47
2022-12-09T09:53:12.167Z,98821.16
2022-12-09T09:55:43.873Z,98842.72
2022-12-09T09:58:15.077Z,98839.25
2022-12-09T10:00:47.628Z,98839.25
2022-12-09T10:03:18.969Z,98843.56
2022-12-09T10:05:51.868Z,98790.88
2022-12-09T10:08:28.245Z,98829.69
2022-12-09T10:11:05.159Z,98808.09
2022-12-09T10:13:42.219Z,98834.88
2022-12-09T10:16:17.882Z,98824.41
2022-12-09T10:19:07.385Z,98828.72
2022-12-09T10:21:39.499Z,98796.72
2022-12-09T10:24:17.423Z,98829.47
2022-12-09T10:26:45.317Z,98812.94
2022-12-09T10:29:16.810Z,98819.88
2022-12-09T10:31:45.209Z,98811.13
2022-12-09T10:34:16.123Z,98797.41
2022-12-09T10:36:45.305Z,98810.25
2022-12-09T10:39:16.556Z,98807.59
2022-12-09T10:42:03.939Z,98804.06
2022-12-09T10:44:31.978Z,98804.91
2022-12-09T10:47:01.413Z,98770.34
2022-12-09T10:49:29.657Z,98758.34
2022-12-09T10:51:58.115Z,98787.63
2022-12-09T10:54:34.977Z,98800.53
2022-12-09T10:57:26.865Z,98797.88
2022-12-09T11:00:01.850Z,98801.34
2022-12-09T11:02:30.370Z,98784.88
2022-12-09T11:05:19.104Z,98791.72
2022-12-09T11:07:49.198Z,98793.47
2022-12-09T11:10:20.713Z,98795.31
2022-12-09T11:12:52.111Z,98789.25
2022-12-09T11:15:26.603Z,98790.13
2022-12-09T11:18:00.411Z,98785.84
2022-12-09T11:20:29.676Z,98785.84
2022-12-09T11:23:04.268Z,98784.13
2022-12-09T11:25:35.192Z,98796.31
2022-12-09T11:28:04.042Z,98788.47
2022-12-09T11:30:34.075Z,98784.94
2022-12-09T11:33:06.063Z,98778.72
2022-12-09T11:35:38.331Z,98774.19
2022-12-09T11:38:23.225Z,98779.94
2022-12-09T11:41:15.352Z,98760.94
2022-12-09T11:43:44.655Z,98779.69
2022-12-09T11:46:21.460Z,98780.41
2022-12-09T11:48:51.554Z,98774.31
2022-12-09T11:51:21.820Z,98773.59
2022-12-09T11:53:49.751Z,98724.47
2022-12-09T11:56:19.663Z,98739.91
2022-12-09T11:58:50.743Z,98751.13
2022-12-09T12:01:21.108Z,98749.25
2022-12-09T12:03:51.100Z,98749.84
2022-12-09T12:06:21.671Z,98781.84
2022-12-09T12:08:51.097Z,98760.94
2022-12-09T12:11:21.921Z,98766.13
2022-12-09T12:13:50.420Z,98751.31
2022-12-09T12:16:19.785Z,98758.16
2022-12-09T12:18:48.859Z,98729.78
2022-12-09T12:21:21.757Z,98759.09
2022-12-09T12:23:59.887Z,98748.59
2022-12-09T12:26:30.448Z,98733.00
2022-12-09T12:29:09.160Z,98754.50
2022-12-09T12:31:51.413Z,98733.22
2022-12-09T12:34:25.663Z,98686.38
2022-12-09T12:36:57.407Z,98745.06
2022-12-09T12:39:32.361Z,98746.09
2022-12-09T12:42:07.063Z,98753.22
2022-12-09T12:45:01.795Z,98749.94
2022-12-09T12:47:31.450Z,98751.00
2022-12-09T12:50:47.984Z,98752.00
2022-12-09T12:53:24.053Z,98723.16
2022-12-09T12:55:55.092Z,98745.50
2022-12-09T12:58:34.553Z,98746.66
2022-12-09T13:01:04.496Z,98745.22
2022-12-09T13:03:37.562Z,98738.53
2022-12-09T13:06:05.349Z,98723.47
2022-12-09T13:08:36.648Z,98738.19
2022-12-09T13:11:07.877Z,98727.22
2022-12-09T13:13:38.698Z,98737.75
2022-12-09T13:16:10.158Z,98732.47
2022-12-09T13:18:39.825Z,98740.34
2022-12-09T13:21:07.926Z,98715.09
2022-12-09T13:23:51.177Z,98734.19
2022-12-09T13:26:25.154Z,98731.56
2022-12-09T13:28:57.615Z,98731.75
2022-12-09T13:31:28.924Z,98689.84
2022-12-09T13:34:00.376Z,98729.38
2022-12-09T13:36:36.472Z,98684.75
2022-12-09T13:39:04.542Z,98723.25
2022-12-09T13:42:02.793Z,98718.94
2022-12-09T13:44:38.474Z,98723.19
2022-12-09T13:47:34.819Z,98718.06
2022-12-09T13:50:03.780Z,98698.53
2022-12-09T13:52:56.492Z,98736.63
2022-12-09T13:55:39.674Z,98714.53
2022-12-09T13:58:35.077Z,98739.63
2022-12-09T14:01:07.953Z,98741.59
2022-12-09T14:03:37.055Z,98728.78
2022-12-09T14:06:06.970Z,98759.97
2022-12-09T14:08:36.881Z,98704.78
2022-12-09T14:11:48.210Z,98747.00
2022-12-09T14:14:38.229Z,98741.00
2022-12-09T14:17:19.141Z,98691.06
2022-12-09T14:19:52.924Z,98734.19
2022-12-09T14:22:41.570Z,98733.44
2022-12-09T14:25:49.722Z,98742.06
2022-12-09T14:29:00.959Z,98746.44
2022-12-09T14:31:59.604Z,98707.63
2022-12-09T14:34:31.058Z,98745.72
2022-12-09T14:37:07.076Z,98731.06
2022-12-09T14:39:37.771Z,98727.78
2022-12-09T14:42:08.682Z,98740.66
2022-12-09T14:44:39.120Z,98735.53
2022-12-09T14:47:23.168Z,98745.09
2022-12-09T14:49:50.879Z,98750.31
2022-12-09T14:52:22.994Z,98709.81
2022-12-09T14:54:50.847Z,98750.34
2022-12-09T14:57:24.383Z,98715.88
2022-12-09T14:59:53.672Z,98715.03
2022-12-09T15:02:23.834Z,98708.22
2022-12-09T15:04:52.397Z,98747.00
2022-12-09T15:07:21.620Z,98752.22
2022-12-09T15:09:54.496Z,98705.66
2022-12-09T15:12:24.111Z,98699.66
2022-12-09T15:14:56.390Z,98748.00
2022-12-09T15:17:26.927Z,98758.41
2022-12-09T15:20:05.782Z,98756.69
2022-12-09T15:22:33.706Z,98761.09
2022-12-09T15:25:04.500Z,98754.19
2022-12-09T15:27:32.662Z,98761.97
2022-12-09T15:30:04.279Z,98764.59
2022-12-09T15:32:33.636Z,98766.31
2022-12-09T15:35:30.870Z,98773.25
2022-12-09T15:37:59.478Z,98781.06
2022-12-09T15:40:29.279Z,98754.31
2022-12-09T15:42:59.465Z,98768.13
2022-12-09T15:45:28.397Z,98755.19
2022-12-09T15:47:59.127Z,98781.94
2022-12-09T15:50:28.432Z,98789.72
2022-12-09T15:52:58.438Z,98779.38
2022-12-09T15:55:28.356Z,98786.28
2022-12-09T15:57:56.782Z,98782.81
2022-12-09T16:00:24.913Z,98783.69
2022-12-09T16:02:53.992Z,98778.53
2022-12-09T16:05:24.975Z,98780.25
2022-12-09T16:07:54.631Z,98779.38
2022-12-09T16:10:26.611Z,98776.78
2022-12-09T16:13:08.611Z,98745.69
2022-12-09T16:15:46.069Z,98768.13
2022-12-09T16:18:20.617Z,98777.66
2022-12-09T16:21:00.283Z,98769.03
2022-12-09T16:23:30.552Z,98771.63
2022-12-09T16:26:06.315Z,98762.09
2022-12-09T16:28:35.246Z,98623.91
2022-12-09T16:31:04.317Z,98768.13
2022-12-09T16:33:34.370Z,98791.47
2022-12-09T16:36:04.725Z,98791.47
2022-12-09T16:38:33.956Z,98781.94
2022-12-09T16:41:07.040Z,98782.81
2022-12-09T16:43:35.047Z,98782.81
2022-12-09T16:46:23.850Z,98783.66
2022-12-09T16:48:51.783Z,98770.72
2022-12-09T16:51:22.867Z,98786.25
2022-12-09T16:53:51.681Z,98756.81
2022-12-09T16:56:20.744Z,98744.72
2022-12-09T16:58:48.589Z,98788.81
2022-12-09T17:01:17.544Z,98787.94
2022-12-09T17:03:46.836Z,98784.44
2022-12-09T17:06:15.132Z,98748.97
2022-12-09T17:08:44.661Z,98798.25
2022-12-09T17:11:12.559Z,98798.22
2022-12-09T17:13:40.790Z,98790.44
2022-12-09T17:16:09.521Z,98756.72
2022-12-09T17:18:37.492Z,98796.50
2022-12-09T17:21:06.817Z,98799.06
2022-12-09T17:23:39.711Z,98793.88
2022-12-09T17:26:10.587Z,98806.81
2022-12-09T17:28:38.835Z,98808.53
2022-12-09T17:31:08.877Z,98809.38
2022-12-09T17:33:36.766Z,98813.69
2022-12-09T17:36:04.809Z,98722.78
2022-12-09T17:38:33.078Z,98814.41
2022-12-09T17:41:04.607Z,98820.47
2022-12-09T17:43:34.082Z,98798.78
2022-12-09T17:46:03.815Z,98844.63
2022-12-09T17:48:31.964Z,98838.63
2022-12-09T17:51:00.660Z,98839.50
2022-12-09T17:53:31.651Z,98847.28
2022-12-09T17:55:59.588Z,98849.91
2022-12-09T17:58:27.647Z,98844.75
2022-12-09T18:00:57.173Z,98849.16
2022-12-09T18:03:53.902Z,98851.75
2022-12-09T18:06:12.978Z,98857.00
2022-12-09T18:08:40.836Z,98857.88
2022-12-09T18:11:10.698Z,98863.97
2022-12-09T18:13:38.717Z,98863.97
2022-12-09T18:16:11.124Z,98873.44
2022-12-09T18:18:39.072Z,98871.75
2022-12-09T18:21:13.654Z,98869.13
2022-12-09T18:23:43.388Z,98858.78
2022-12-09T18:26:12.362Z,98866.53
2022-12-09T18:28:40.412Z,98853.56
2022-12-09T18:31:10.246Z,98879.53
2022-12-09T18:33:39.480Z,98869.09
2022-12-09T18:36:08.098Z,98885.50
2022-12-09T18:38:36.016Z,98882.06
2022-12-09T18:41:04.096Z,98883.78
2022-12-09T18:43:33.836Z,98786.81
2022-12-09T18:46:03.130Z,98932.84
2022-12-09T18:48:32.753Z,98884.50
2022-12-09T18:51:00.632Z,98883.59
2022-12-09T18:53:28.422Z,98886.22
2022-12-09T18:55:56.384Z,98892.25
2022-12-09T18:58:49.527Z,98806.63
2022-12-09T19:01:17.140Z,98890.56
2022-12-09T19:03:46.518Z,98892.31
2022-12-09T19:06:23.326Z,98890.59
2022-12-09T19:08:53.826Z,98890.59
2022-12-09T19:11:22.568Z,98891.47
2022-12-09T19:13:50.564Z,98891.47
2022-12-09T19:16:18.735Z,98896.63
2022-12-09T19:18:48.205Z,98894.91
2022-12-09T19:21:18.783Z,98892.31
2022-12-09T19:23:47.004Z,98905.34
2022-12-09T19:26:15.534Z,98903.63
2022-12-09T19:28:47.137Z,98935.47
2022-12-09T19:31:16.582Z,98895.78
2022-12-09T19:33:44.546Z,98908.78
2022-12-09T19:36:13.929Z,98903.56
2022-12-09T19:38:42.484Z,98912.25
2022-12-09T19:41:10.580Z,98915.66
2022-12-09T19:43:38.695Z,98913.06
2022-12-09T19:46:07.461Z,98915.66
2022-12-09T19:48:37.126Z,98913.06
2022-12-09T19:51:06.469Z,98904.44
2022-12-09T19:53:36.321Z,98912.22
2022-12-09T19:56:05.572Z,98917.41
2022-12-09T19:58:33.954Z,98914.81
2022-12-09T20:01:08.555Z,98875.84
2022-12-09T20:03:36.554Z,98915.75
2022-12-09T20:06:04.802Z,98916.63
2022-12-09T20:08:32.902Z,98916.63
2022-12-09T20:11:02.304Z,98918.38
2022-12-09T20:13:31.994Z,98913.19
2022-12-09T20:16:04.686Z,98918.34
2022-12-09T20:18:32.672Z,98924.41
2022-12-09T20:21:01.640Z,98916.63
2022-12-09T20:23:29.646Z,98910.59
2022-12-09T20:26:05.860Z,98920.97
2022-12-09T20:28:33.857Z,98931.38
2022-12-09T20:31:15.712Z,98922.72
2022-12-09T20:33:43.702Z,98927.03
2022-12-09T20:36:12.696Z,98921.88
2022-12-09T20:38:40.598Z,98914.06
2022-12-09T20:41:11.224Z,98925.31
2022-12-09T20:43:40.314Z,98923.56
2022-12-09T20:46:25.184Z,98923.56
2022-12-09T20:48:53.274Z,98931.31
2022-12-09T20:51:22.967Z,98927.88
2022-12-09T20:53:50.957Z,98930.50
2022-12-09T20:56:21.158Z,98929.63
2022-12-09T20:58:50.983Z,98927.03
2022-12-09T21:01:21.219Z,98864.72
2022-12-09T21:03:49.256Z,98926.19
2022-12-09T21:06:17.845Z,98933.94
2022-12-09T21:08:45.699Z,98921.81
2022-12-09T21:11:14.822Z,98930.50
2022-12-09T21:13:55.109Z,98928.75
2022-12-09T21:16:25.368Z,98924.44
2022-12-09T21:18:54.402Z,98933.06
2022-12-09T21:21:23.059Z,98925.31
2022-12-09T21:23:54.128Z,98927.00
2022-12-09T21:26:22.998Z,98923.56
2022-12-09T21:28:52.486Z,98935.66
2022-12-09T21:31:22.983Z,98911.34
2022-12-09T21:33:51.438Z,98936.50
2022-12-09T21:36:20.636Z,98939.97
2022-12-09T21:38:48.632Z,98939.88
2022-12-09T21:41:19.339Z,98937.34
2022-12-09T21:43:47.174Z,98928.69
2022-12-09T21:46:17.662Z,98929.56
2022-12-09T21:48:51.560Z,98935.56
2022-12-09T21:51:20.288Z,98935.53
2022-12-09T21:53:48.219Z,98944.97
2022-12-09T21:56:17.207Z,98939.75
2022-12-09T21:58:45.126Z,98935.41
2022-12-09T22:01:14.167Z,98947.44
2022-12-09T22:03:44.534Z,98940.44
2022-12-09T22:06:12.559Z,98944.75
2022-12-09T22:08:40.862Z,98946.47
2022-12-09T22:11:09.816Z,98946.44
2022-12-09T22:13:39.723Z,98951.59
2022-12-09T22:16:08.327Z,98936.91
2022-12-09T22:18:36.199Z,98973.97
2022-12-09T22:23:54.427Z,98948.06
2022-12-09T22:26:22.522Z,98883.91
2022-12-09T22:28:50.355Z,98948.84
2022-12-09T22:31:20.645Z,98943.56
2022-12-09T22:33:48.624Z,98952.22
2022-12-09T22:36:17.844Z,98964.25
2022-12-09T22:38:45.694Z,98930.50
2022-12-09T22:41:15.393Z,98959.84
2022-12-09T22:43:43.614Z,98964.16
2022-12-09T22:46:20.735Z,98960.66
2022-12-09T22:48:48.712Z,98958.84
2022-12-09T22:51:18.968Z,98965.75
2022-12-09T22:53:48.048Z,98961.41
2022-12-09T22:56:15.780Z,98964.84
2022-12-09T22:58:43.447Z,98961.38
2022-12-09T23:01:11.985Z,98965.63
2022-12-09T23:03:39.700Z,98960.44
2022-12-09T23:06:07.746Z,98957.81
2022-12-09T23:08:37.600Z,98953.44
2022-12-09T23:11:06.844Z,98958.63
2022-12-09T23:13:40.468Z,98959.44
2022-12-09T23:18:42.710Z,98966.25
2022-12-09T23:21:11.244Z,98955.06
2022-12-09T23:23:40.300Z,98962.78
2022-12-09T23:26:09.124Z,98955.81
2022-12-09T23:28:37.221Z,98966.16
2022-12-09T23:31:05.113Z,98969.56
2022-12-09T23:33:34.024Z,98974.69
2022-12-09T23:36:06.224Z,98972.94
2022-12-09T23:38:35.088Z,98978.03
2022-12-09T23:41:04.263Z,98980.63
2022-12-09T23:43:32.222Z,98980.56
2022-12-09T23:46:01.320Z,98976.19
2022-12-09T23:48:29.064Z,98971.75
2022-12-09T23:50:56.787Z,98987.22
2022-12-09T23:53:24.639Z,98989.91
2022-12-09T23:55:52.908Z,98992.50
2022-12-09T23:58:22.086Z,98995.00
